createdAt,value
2018-07-31T00:02:17.794Z,6.97
2018-07-31T00:04:46.934Z,6.40
2018-07-31T00:07:16.296Z,6.80
2018-07-31T00:09:45.640Z,6.50
2018-07-31T00:12:14.947Z,6.37
2018-07-31T00:14:44.368Z,6.60
2018-07-31T00:17:13.684Z,6.67
2018-07-31T00:19:42.985Z,6.90
2018-07-31T00:22:12.252Z,7.27
2018-07-31T00:24:41.540Z,6.83
2018-07-31T00:27:10.834Z,7.27
2018-07-31T00:29:40.103Z,7.13
2018-07-31T00:32:09.366Z,7.10
2018-07-31T00:34:38.692Z,6.43
2018-07-31T00:37:08.008Z,7.03
2018-07-31T00:39:37.278Z,7.20
2018-07-31T00:42:06.560Z,7.60
2018-07-31T00:44:35.872Z,7.57
2018-07-31T00:47:05.224Z,7.23
2018-07-31T00:49:34.518Z,7.00
2018-07-31T00:52:03.800Z,8.23
2018-07-31T00:54:33.055Z,7.80
2018-07-31T00:57:02.362Z,7.57
2018-07-31T00:59:31.656Z,7.37
2018-07-31T01:02:00.968Z,7.23
2018-07-31T01:04:30.325Z,6.80
2018-07-31T01:06:59.617Z,7.37
2018-07-31T01:09:28.898Z,7.53
2018-07-31T01:11:58.203Z,7.37
2018-07-31T01:14:27.492Z,7.30
2018-07-31T01:16:56.799Z,8.00
2018-07-31T01:19:26.191Z,7.57
2018-07-31T01:21:55.489Z,7.47
2018-07-31T01:24:24.750Z,7.70
2018-07-31T01:26:54.038Z,7.40
2018-07-31T01:29:23.351Z,7.70
2018-07-31T01:31:52.649Z,7.27
2018-07-31T01:34:21.940Z,7.90
2018-07-31T01:36:51.218Z,7.70
2018-07-31T01:39:20.563Z,8.60
2018-07-31T01:41:49.988Z,7.87
2018-07-31T01:44:19.254Z,7.93
2018-07-31T01:46:48.580Z,7.30
2018-07-31T01:49:17.851Z,8.07
2018-07-31T01:51:47.126Z,7.90
2018-07-31T01:54:16.422Z,8.13
2018-07-31T01:56:45.735Z,7.60
2018-07-31T01:59:15.032Z,7.50
2018-07-31T02:01:44.342Z,7.47
2018-07-31T02:04:13.624Z,7.77
2018-07-31T02:06:42.903Z,7.57
2018-07-31T02:09:12.192Z,7.33
2018-07-31T02:11:41.582Z,7.23
2018-07-31T02:14:10.907Z,8.20
2018-07-31T02:16:40.228Z,7.57
2018-07-31T02:19:09.498Z,7.20
2018-07-31T02:21:38.757Z,8.30
2018-07-31T02:24:08.028Z,7.93
2018-07-31T02:26:37.290Z,7.80
2018-07-31T02:29:06.574Z,7.60
2018-07-31T02:31:35.895Z,8.07
2018-07-31T02:34:05.175Z,8.17
2018-07-31T02:36:34.520Z,8.23
2018-07-31T02:39:04.650Z,8.10
2018-07-31T02:41:33.924Z,8.50
2018-07-31T02:44:03.227Z,8.50
2018-07-31T02:46:32.653Z,8.30
2018-07-31T02:49:01.936Z,8.63
2018-07-31T02:51:31.228Z,9.00
2018-07-31T02:54:00.479Z,8.50
2018-07-31T02:56:29.760Z,8.70
2018-07-31T02:58:59.043Z,9.03
2018-07-31T03:01:28.337Z,9.53
2018-07-31T03:03:57.615Z,9.17
2018-07-31T03:06:26.971Z,8.53
2018-07-31T03:08:56.265Z,8.03
2018-07-31T03:11:25.577Z,9.07
2018-07-31T03:13:54.856Z,8.93
2018-07-31T03:16:24.155Z,9.60
2018-07-31T03:18:53.403Z,8.97
2018-07-31T03:21:22.715Z,8.33
2018-07-31T03:23:52.000Z,8.90
2018-07-31T03:26:21.275Z,8.57
2018-07-31T03:28:50.609Z,8.43
2018-07-31T03:31:19.952Z,8.77
2018-07-31T03:33:49.417Z,8.57
2018-07-31T03:36:18.704Z,8.30
2018-07-31T03:38:48.059Z,8.80
2018-07-31T03:41:17.415Z,9.03
2018-07-31T03:43:46.692Z,8.60
2018-07-31T03:46:15.981Z,8.83
2018-07-31T03:48:45.431Z,8.93
2018-07-31T03:51:14.747Z,8.30
2018-07-31T03:53:44.074Z,8.87
2018-07-31T03:58:48.866Z,8.87
2018-07-31T04:01:18.170Z,9.57
2018-07-31T04:03:47.442Z,9.27
2018-07-31T04:06:16.756Z,8.70
2018-07-31T04:08:46.060Z,9.00
2018-07-31T04:11:15.366Z,8.90
2018-07-31T04:13:44.739Z,9.83
2018-07-31T04:16:14.020Z,9.80
2018-07-31T04:18:43.302Z,8.77
2018-07-31T04:21:12.578Z,10.23
2018-07-31T04:23:41.904Z,9.47
2018-07-31T04:26:11.178Z,9.07
2018-07-31T04:28:40.471Z,9.80
2018-07-31T04:31:09.762Z,10.03
2018-07-31T04:33:39.043Z,9.83
2018-07-31T04:36:08.361Z,10.30
2018-07-31T04:38:37.679Z,10.27
2018-07-31T04:41:07.549Z,12.27
2018-07-31T04:44:02.975Z,17.87
2018-07-31T04:46:35.455Z,18.40
2018-07-31T04:49:18.163Z,18.80
2018-07-31T04:51:47.462Z,19.00
2018-07-31T04:54:18.106Z,15.53
2018-07-31T04:56:52.235Z,15.67
2018-07-31T04:59:37.883Z,14.00
2018-07-31T05:02:07.160Z,12.50
2018-07-31T05:04:36.527Z,11.53
2018-07-31T05:07:05.491Z,11.87
2018-07-31T05:09:34.671Z,11.53
2018-07-31T05:12:04.032Z,10.53
2018-07-31T05:14:33.349Z,10.93
2018-07-31T05:17:02.663Z,10.00
2018-07-31T05:19:31.969Z,9.97
2018-07-31T05:22:02.716Z,10.00
2018-07-31T05:24:32.018Z,9.53
2018-07-31T05:27:02.807Z,10.07
2018-07-31T05:29:32.103Z,9.37
2018-07-31T05:32:06.724Z,9.00
2018-07-31T05:34:36.273Z,9.17
2018-07-31T05:37:05.579Z,9.00
2018-07-31T05:39:34.873Z,8.93
2018-07-31T05:42:04.148Z,8.87
2018-07-31T05:44:33.522Z,9.20
2018-07-31T05:47:02.828Z,9.30
2018-07-31T05:49:32.092Z,8.63
2018-07-31T05:52:01.445Z,8.67
2018-07-31T05:54:30.760Z,8.43
2018-07-31T05:57:00.062Z,8.43
2018-07-31T05:59:29.364Z,8.73
2018-07-31T06:01:58.687Z,8.70
2018-07-31T06:04:27.980Z,8.53
2018-07-31T06:06:57.272Z,8.57
2018-07-31T06:09:26.577Z,8.27
2018-07-31T06:11:55.865Z,8.27
2018-07-31T06:14:25.172Z,8.50
2018-07-31T06:16:54.488Z,8.30
2018-07-31T06:19:24.021Z,8.37
2018-07-31T06:21:53.311Z,8.40
2018-07-31T06:24:22.598Z,8.23
2018-07-31T06:26:51.952Z,8.47
2018-07-31T06:29:21.274Z,8.10
2018-07-31T06:31:51.255Z,8.07
2018-07-31T06:34:21.673Z,7.53
2018-07-31T06:36:50.963Z,8.17
2018-07-31T06:39:20.355Z,8.00
2018-07-31T06:41:49.660Z,8.00
2018-07-31T06:44:18.960Z,8.10
2018-07-31T06:46:48.352Z,7.33
2018-07-31T06:49:17.683Z,7.80
2018-07-31T06:51:46.978Z,8.43
2018-07-31T06:54:16.280Z,7.90
2018-07-31T06:56:45.596Z,8.43
2018-07-31T06:59:14.992Z,7.57
2018-07-31T07:01:44.284Z,8.43
2018-07-31T07:04:13.558Z,7.63
2018-07-31T07:06:42.860Z,7.87
2018-07-31T07:09:12.586Z,7.57
2018-07-31T07:11:41.859Z,8.00
2018-07-31T07:14:11.193Z,7.73
2018-07-31T07:16:40.480Z,7.77
2018-07-31T07:19:09.786Z,7.57
2018-07-31T07:21:39.044Z,7.23
2018-07-31T07:24:08.320Z,8.03
2018-07-31T07:26:37.636Z,7.57
2018-07-31T07:29:06.920Z,8.30
2018-07-31T07:31:36.207Z,7.33
2018-07-31T07:34:05.837Z,7.67
2018-07-31T07:36:35.145Z,7.53
2018-07-31T07:39:07.534Z,7.87
2018-07-31T07:41:36.796Z,6.93
2018-07-31T07:44:06.497Z,7.30
2018-07-31T07:46:35.815Z,7.90
2018-07-31T07:49:05.183Z,7.23
2018-07-31T07:51:34.462Z,7.37
2018-07-31T07:54:03.832Z,6.80
2018-07-31T07:56:33.084Z,6.60
2018-07-31T07:59:02.403Z,7.17
2018-07-31T08:01:31.711Z,6.67
2018-07-31T08:04:01.038Z,6.93
2018-07-31T08:06:30.292Z,7.23
2018-07-31T08:08:59.566Z,7.07
2018-07-31T08:11:29.006Z,7.00
2018-07-31T08:13:58.321Z,7.10
2018-07-31T08:16:27.671Z,6.87
2018-07-31T08:18:57.091Z,6.63
2018-07-31T08:21:26.429Z,6.67
2018-07-31T08:23:55.736Z,7.07
2018-07-31T08:26:25.040Z,7.00
2018-07-31T08:28:54.361Z,7.40
2018-07-31T08:31:23.654Z,7.27
2018-07-31T08:33:53.078Z,7.10
2018-07-31T08:36:22.403Z,7.73
2018-07-31T08:38:51.677Z,7.17
2018-07-31T08:41:20.989Z,6.07
2018-07-31T08:43:50.239Z,7.30
2018-07-31T08:46:19.588Z,6.87
2018-07-31T08:48:48.895Z,6.77
2018-07-31T08:51:18.254Z,7.13
2018-07-31T08:53:47.518Z,7.20
2018-07-31T08:56:17.281Z,6.67
2018-07-31T08:58:46.592Z,6.47
2018-07-31T09:01:15.856Z,6.73
2018-07-31T09:03:45.131Z,5.90
2018-07-31T09:06:14.444Z,6.73
2018-07-31T09:08:43.807Z,6.40
2018-07-31T09:11:13.010Z,6.30
2018-07-31T09:13:42.266Z,5.97
2018-07-31T09:16:11.727Z,6.10
2018-07-31T09:18:41.008Z,6.13
2018-07-31T09:21:10.363Z,6.70
2018-07-31T09:23:39.687Z,5.80
2018-07-31T09:26:08.988Z,6.77
2018-07-31T09:28:38.283Z,5.97
2018-07-31T09:31:12.498Z,6.30
2018-07-31T09:33:42.052Z,6.57
2018-07-31T09:36:11.400Z,6.40
2018-07-31T09:38:40.692Z,5.97
2018-07-31T09:41:09.989Z,6.00
2018-07-31T09:43:39.271Z,6.53
2018-07-31T09:46:08.587Z,6.50
2018-07-31T09:48:37.919Z,6.03
2018-07-31T09:51:07.244Z,6.27
2018-07-31T09:53:36.784Z,6.00
2018-07-31T09:56:06.125Z,5.90
2018-07-31T09:58:35.734Z,5.97
2018-07-31T10:01:10.451Z,6.07
2018-07-31T10:03:39.759Z,6.50
2018-07-31T10:06:09.048Z,6.53
2018-07-31T10:08:38.340Z,6.37
2018-07-31T10:11:07.598Z,6.43
2018-07-31T10:13:36.870Z,6.03
2018-07-31T10:16:05.856Z,6.10
2018-07-31T10:18:35.008Z,6.50
2018-07-31T10:21:04.280Z,6.63
2018-07-31T10:26:17.324Z,5.73
2018-07-31T10:28:46.594Z,5.57
2018-07-31T10:31:15.893Z,6.43
2018-07-31T10:33:45.184Z,6.60
2018-07-31T10:36:14.457Z,5.70
2018-07-31T10:38:43.746Z,6.03
2018-07-31T10:41:13.010Z,6.20
2018-07-31T10:43:42.491Z,6.00
2018-07-31T10:46:11.741Z,6.00
2018-07-31T10:48:41.162Z,6.33
2018-07-31T10:51:10.472Z,6.03
2018-07-31T10:53:39.736Z,5.90
2018-07-31T10:56:08.999Z,5.57
2018-07-31T10:58:38.431Z,5.90
2018-07-31T11:01:07.658Z,5.47
2018-07-31T11:03:36.968Z,5.60
2018-07-31T11:06:06.329Z,5.80
2018-07-31T11:08:35.651Z,6.20
2018-07-31T11:11:04.938Z,5.43
2018-07-31T11:13:34.224Z,5.67
2018-07-31T11:16:03.194Z,6.20
2018-07-31T11:18:32.355Z,5.43
2018-07-31T11:21:01.715Z,5.57
2018-07-31T11:23:30.945Z,5.63
2018-07-31T11:26:00.215Z,5.33
2018-07-31T11:28:29.564Z,5.33
2018-07-31T11:30:58.877Z,5.63
2018-07-31T11:33:28.164Z,5.57
2018-07-31T11:35:57.503Z,5.00
2018-07-31T11:38:26.823Z,5.63
2018-07-31T11:40:56.094Z,5.30
2018-07-31T11:43:25.407Z,5.63
2018-07-31T11:45:54.705Z,5.23
2018-07-31T11:48:23.967Z,5.37
2018-07-31T11:50:53.349Z,5.23
2018-07-31T11:53:22.653Z,4.87
2018-07-31T11:55:51.973Z,5.43
2018-07-31T11:58:21.265Z,5.33
2018-07-31T12:00:50.843Z,5.40
2018-07-31T12:03:20.166Z,5.20
2018-07-31T12:05:49.417Z,4.93
2018-07-31T12:08:18.727Z,5.43
2018-07-31T12:10:48.040Z,4.90
2018-07-31T12:13:17.366Z,5.17
2018-07-31T12:15:46.784Z,4.80
2018-07-31T12:18:16.088Z,5.53
2018-07-31T12:20:45.436Z,5.33
2018-07-31T12:23:14.735Z,5.03
2018-07-31T12:25:44.008Z,5.00
2018-07-31T12:28:13.314Z,4.73
2018-07-31T12:30:42.585Z,5.00
2018-07-31T12:33:11.938Z,4.83
2018-07-31T12:35:41.240Z,5.47
2018-07-31T12:38:10.629Z,5.37
2018-07-31T12:40:39.884Z,5.37
2018-07-31T12:43:09.195Z,5.37
2018-07-31T12:45:38.599Z,4.77
2018-07-31T12:48:07.956Z,4.73
2018-07-31T12:50:36.881Z,5.03
2018-07-31T12:53:06.034Z,5.00
2018-07-31T12:55:35.314Z,5.00
2018-07-31T12:58:04.632Z,5.20
2018-07-31T13:00:33.912Z,5.23
2018-07-31T13:03:03.287Z,5.07
2018-07-31T13:05:32.584Z,4.40
2018-07-31T13:08:01.887Z,5.17
2018-07-31T13:10:31.252Z,5.30
2018-07-31T13:13:00.559Z,5.23
2018-07-31T13:15:29.857Z,5.43
2018-07-31T13:17:59.123Z,5.00
2018-07-31T13:20:28.440Z,5.00
2018-07-31T13:22:57.725Z,5.33
2018-07-31T13:25:26.979Z,5.13
2018-07-31T13:27:56.261Z,4.97
2018-07-31T13:30:25.546Z,5.03
2018-07-31T13:32:54.806Z,5.03
2018-07-31T13:35:24.094Z,5.07
2018-07-31T13:37:53.375Z,4.90
2018-07-31T13:40:22.687Z,5.00
2018-07-31T13:42:52.162Z,4.57
2018-07-31T13:45:21.392Z,5.40
2018-07-31T13:47:50.707Z,5.30
2018-07-31T13:50:19.960Z,4.93
2018-07-31T13:52:49.300Z,5.03
2018-07-31T13:55:18.633Z,4.50
2018-07-31T13:57:47.920Z,4.90
2018-07-31T14:00:17.267Z,4.80
2018-07-31T14:02:46.663Z,4.67
2018-07-31T14:05:15.623Z,4.63
2018-07-31T14:07:44.830Z,4.87
2018-07-31T14:10:14.108Z,4.73
2018-07-31T14:12:43.422Z,4.97
2018-07-31T14:15:12.645Z,5.07
2018-07-31T14:17:41.894Z,4.57
2018-07-31T14:20:11.169Z,4.93
2018-07-31T14:22:40.604Z,5.07
2018-07-31T14:25:09.899Z,4.53
2018-07-31T14:27:39.417Z,5.03
2018-07-31T14:30:08.729Z,4.83
2018-07-31T14:32:38.112Z,4.97
2018-07-31T14:35:07.521Z,4.30
2018-07-31T14:37:36.824Z,5.13
2018-07-31T14:40:06.123Z,5.60
2018-07-31T14:42:35.392Z,5.30
2018-07-31T14:45:04.887Z,5.20
2018-07-31T14:47:34.193Z,4.90
2018-07-31T14:50:03.492Z,4.90
2018-07-31T14:52:32.795Z,4.70
2018-07-31T14:55:02.116Z,4.20
2018-07-31T14:57:31.399Z,4.67
2018-07-31T15:00:00.697Z,4.90
2018-07-31T15:02:29.927Z,5.03
2018-07-31T15:04:59.226Z,5.13
2018-07-31T15:07:28.670Z,5.00
2018-07-31T15:09:58.040Z,4.77
2018-07-31T15:12:27.372Z,4.90
2018-07-31T15:14:56.745Z,5.00
2018-07-31T15:17:26.052Z,4.83
2018-07-31T15:19:55.424Z,4.90
2018-07-31T15:22:24.708Z,4.77
2018-07-31T15:24:53.963Z,4.90
2018-07-31T15:27:23.246Z,4.53
2018-07-31T15:29:52.675Z,5.10
2018-07-31T15:32:21.952Z,4.90
2018-07-31T15:34:51.251Z,4.60
2018-07-31T15:37:20.526Z,4.60
2018-07-31T15:39:49.788Z,4.33
2018-07-31T15:42:19.176Z,4.80
2018-07-31T15:44:48.477Z,4.50
2018-07-31T15:47:17.771Z,4.97
2018-07-31T15:49:47.035Z,5.00
2018-07-31T15:52:16.312Z,4.97
2018-07-31T15:54:45.697Z,4.30
2018-07-31T15:57:15.007Z,4.73
2018-07-31T15:59:44.314Z,4.93
2018-07-31T16:02:13.600Z,4.70
2018-07-31T16:04:42.952Z,4.90
2018-07-31T16:07:12.246Z,4.70
2018-07-31T16:09:41.507Z,4.80
2018-07-31T16:12:10.834Z,4.77
2018-07-31T16:14:40.108Z,4.50
2018-07-31T16:17:09.415Z,4.80
2018-07-31T16:19:38.635Z,4.13
2018-07-31T16:22:07.932Z,4.40
2018-07-31T16:24:37.231Z,4.60
2018-07-31T16:27:22.018Z,4.60
2018-07-31T16:29:51.335Z,4.90
2018-07-31T16:32:20.608Z,4.83
2018-07-31T16:34:49.958Z,4.80
2018-07-31T16:37:19.439Z,4.40
2018-07-31T16:39:48.820Z,4.33
2018-07-31T16:42:18.034Z,4.40
2018-07-31T16:44:47.360Z,4.60
2018-07-31T16:47:16.624Z,4.37
2018-07-31T16:49:45.953Z,4.90
2018-07-31T16:52:15.206Z,4.40
2018-07-31T16:54:44.528Z,4.87
2018-07-31T16:57:13.971Z,4.20
2018-07-31T16:59:44.727Z,4.40
2018-07-31T17:02:14.032Z,4.20
2018-07-31T17:04:43.339Z,4.57
2018-07-31T17:07:12.694Z,4.27
2018-07-31T17:09:41.980Z,4.80
2018-07-31T17:12:11.295Z,4.63
2018-07-31T17:14:40.578Z,4.57
2018-07-31T17:17:09.909Z,4.63
2018-07-31T17:19:39.902Z,4.23
2018-07-31T17:22:09.044Z,4.93
2018-07-31T17:24:38.314Z,4.27
2018-07-31T17:27:07.599Z,4.33
2018-07-31T17:29:51.898Z,3.80
2018-07-31T17:32:35.161Z,4.53
2018-07-31T17:35:10.747Z,4.80
2018-07-31T17:37:41.241Z,4.63
2018-07-31T17:40:11.227Z,4.00
2018-07-31T17:42:41.780Z,4.70
2018-07-31T17:45:11.085Z,4.33
2018-07-31T17:47:42.353Z,4.20
2018-07-31T17:50:14.876Z,4.47
2018-07-31T17:52:58.867Z,4.50
2018-07-31T17:55:30.296Z,4.50
2018-07-31T17:58:01.518Z,4.40
2018-07-31T18:00:31.319Z,4.10
2018-07-31T18:03:00.583Z,4.50
2018-07-31T18:05:30.759Z,4.57
2018-07-31T18:08:01.579Z,4.30
2018-07-31T18:10:31.282Z,4.30
2018-07-31T18:13:00.564Z,4.20
2018-07-31T18:15:32.294Z,4.23
2018-07-31T18:18:01.642Z,4.40
2018-07-31T18:20:30.950Z,4.40
2018-07-31T18:23:00.237Z,4.10
2018-07-31T18:25:29.535Z,4.10
2018-07-31T18:27:58.904Z,4.30
2018-07-31T18:30:28.328Z,4.40
2018-07-31T18:32:57.660Z,3.83
2018-07-31T18:35:26.937Z,3.90
2018-07-31T18:37:56.529Z,3.77
2018-07-31T18:40:25.811Z,4.33
2018-07-31T18:42:55.132Z,4.33
2018-07-31T18:45:24.444Z,4.27
2018-07-31T18:47:53.711Z,4.47
2018-07-31T18:50:22.990Z,4.10
2018-07-31T18:52:52.584Z,4.30
2018-07-31T18:55:22.058Z,4.30
2018-07-31T18:57:51.580Z,3.87
2018-07-31T19:00:20.835Z,3.93
2018-07-31T19:02:50.127Z,4.00
2018-07-31T19:05:19.394Z,4.00
2018-07-31T19:07:48.701Z,4.07
2018-07-31T19:10:17.964Z,3.73
2018-07-31T19:12:47.247Z,4.33
2018-07-31T19:15:16.719Z,3.97
2018-07-31T19:17:46.935Z,3.77
2018-07-31T19:20:18.331Z,3.70
2018-07-31T19:22:47.607Z,3.90
2018-07-31T19:25:16.903Z,3.97
2018-07-31T19:27:46.228Z,3.63
2018-07-31T19:30:15.688Z,4.00
2018-07-31T19:32:45.013Z,3.80
2018-07-31T19:35:14.327Z,3.77
2018-07-31T19:37:43.665Z,3.90
2018-07-31T19:40:12.976Z,3.90
2018-07-31T19:42:43.313Z,3.87
2018-07-31T19:45:12.647Z,3.83
2018-07-31T19:47:43.273Z,3.83
2018-07-31T19:50:12.923Z,3.97
2018-07-31T19:52:42.181Z,4.00
2018-07-31T19:55:11.472Z,3.50
2018-07-31T19:57:40.429Z,4.00
2018-07-31T20:00:09.649Z,3.87
2018-07-31T20:02:38.974Z,4.00
2018-07-31T20:05:08.394Z,3.77
2018-07-31T20:07:38.187Z,3.98
2018-07-31T20:10:07.568Z,3.80
2018-07-31T20:12:36.917Z,4.13
2018-07-31T20:15:06.484Z,4.17
2018-07-31T20:17:35.853Z,4.00
2018-07-31T20:20:05.584Z,3.95
2018-07-31T20:22:34.871Z,4.50
2018-07-31T20:25:04.321Z,4.20
2018-07-31T20:27:34.328Z,4.92
2018-07-31T20:30:03.580Z,4.67
2018-07-31T20:32:32.948Z,4.60
2018-07-31T20:35:02.330Z,4.90
2018-07-31T20:37:31.683Z,4.35
2018-07-31T20:40:01.205Z,4.50
2018-07-31T20:42:30.460Z,4.85
2018-07-31T20:44:59.789Z,5.08
2018-07-31T20:47:29.052Z,4.70
2018-07-31T20:49:58.337Z,4.72
2018-07-31T20:52:27.743Z,5.42
2018-07-31T20:54:57.031Z,5.10
2018-07-31T20:57:26.324Z,5.20
2018-07-31T20:59:55.644Z,5.10
2018-07-31T21:02:24.975Z,5.73
2018-07-31T21:04:54.354Z,5.70
2018-07-31T21:07:23.635Z,5.40
2018-07-31T21:09:52.935Z,5.67
2018-07-31T21:12:22.227Z,5.17
2018-07-31T21:14:51.567Z,5.30
2018-07-31T21:17:20.558Z,5.33
2018-07-31T21:19:49.735Z,5.30
2018-07-31T21:22:19.054Z,5.87
2018-07-31T21:24:48.395Z,5.70
2018-07-31T21:27:17.692Z,5.77
2018-07-31T21:29:47.018Z,5.70
2018-07-31T21:32:16.544Z,6.20
2018-07-31T21:34:45.851Z,5.83
2018-07-31T21:37:15.131Z,7.10
2018-07-31T21:39:44.491Z,6.70
2018-07-31T21:42:13.775Z,6.27
2018-07-31T21:44:43.156Z,6.70
2018-07-31T21:47:12.496Z,7.23
2018-07-31T21:49:41.975Z,6.87
2018-07-31T21:52:11.236Z,7.53
2018-07-31T21:54:40.559Z,7.30
2018-07-31T21:57:09.857Z,7.37
2018-07-31T21:59:39.147Z,7.60
2018-07-31T22:02:08.459Z,7.87
2018-07-31T22:04:37.744Z,8.23
2018-07-31T22:07:07.060Z,7.70
2018-07-31T22:09:42.203Z,7.47
2018-07-31T22:12:11.735Z,7.15
2018-07-31T22:14:41.494Z,7.58
2018-07-31T22:17:10.792Z,7.92
2018-07-31T22:19:40.509Z,7.87
2018-07-31T22:22:09.948Z,8.03
2018-07-31T22:24:39.215Z,8.20
2018-07-31T22:27:08.528Z,7.80
2018-07-31T22:29:38.220Z,8.05
2018-07-31T22:32:07.568Z,8.68
2018-07-31T22:34:36.832Z,8.23
2018-07-31T22:37:06.143Z,8.40
2018-07-31T22:39:35.429Z,8.10
2018-07-31T22:42:04.880Z,8.17
2018-07-31T22:44:34.368Z,9.00
2018-07-31T22:47:03.556Z,8.67
2018-07-31T22:49:32.841Z,8.07
2018-07-31T22:52:02.171Z,8.13
2018-07-31T22:54:31.518Z,8.23
2018-07-31T22:57:00.795Z,8.00
2018-07-31T22:59:30.097Z,8.97
2018-07-31T23:01:59.357Z,8.73
2018-07-31T23:04:28.626Z,9.10
2018-07-31T23:06:57.949Z,8.87
2018-07-31T23:09:27.291Z,8.53
2018-07-31T23:11:56.580Z,8.40
2018-07-31T23:14:25.868Z,8.43
2018-07-31T23:16:55.160Z,8.23
2018-07-31T23:19:24.488Z,8.53
2018-07-31T23:21:53.756Z,8.60
2018-07-31T23:24:23.068Z,8.33
2018-07-31T23:26:52.410Z,7.80
2018-07-31T23:29:21.674Z,9.00
2018-07-31T23:31:50.947Z,8.50
2018-07-31T23:34:20.206Z,8.47
2018-07-31T23:36:49.482Z,8.30
2018-07-31T23:39:18.756Z,8.40
2018-07-31T23:41:48.039Z,8.53
2018-07-31T23:44:17.323Z,7.77
2018-07-31T23:46:46.642Z,7.90
2018-07-31T23:49:15.936Z,8.13
2018-07-31T23:51:45.225Z,8.17
2018-07-31T23:54:14.492Z,8.13
2018-07-31T23:56:43.485Z,8.40
2018-07-31T23:59:12.598Z,7.97
